sensor_id;sensor_type;location;lat;lon;timestamp;pressure;altitude;pressure_sealevel;temperature;humidity
69411;BME280;56604;48.652;9.194;2022-10-15T00:00:04;95669.81;;;13.70;100.00
69411;BME280;56604;48.652;9.194;2022-10-15T00:02:30;95672.19;;;13.72;100.00
69411;BME280;56604;48.652;9.194;2022-10-15T00:04:55;95671.06;;;13.78;100.00
69411;BME280;56604;48.652;9.194;2022-10-15T00:07:22;95660.28;;;13.75;100.00
69411;BME280;56604;48.652;9.194;2022-10-15T00:09:48;95677.69;;;13.76;100.00
69411;BME280;56604;48.652;9.194;2022-10-15T00:12:13;95671.84;;;13.79;100.00
69411;BME280;56604;48.652;9.194;2022-10-15T00:14:38;95671.97;;;13.68;100.00
69411;BME280;56604;48.652;9.194;2022-10-15T00:17:03;95664.19;;;13.77;100.00
69411;BME280;56604;48.652;9.194;2022-10-15T00:19:29;95668.69;;;13.77;100.00
69411;BME280;56604;48.652;9.194;2022-10-15T00:21:54;95667.34;;;13.79;100.00
69411;BME280;56604;48.652;9.194;2022-10-15T00:24:19;95667.06;;;13.81;100.00
69411;BME280;56604;48.652;9.194;2022-10-15T00:26:45;95666.84;;;13.77;100.00
69411;BME280;56604;48.652;9.194;2022-10-15T00:29:10;95669.47;;;13.77;100.00
69411;BME280;56604;48.652;9.194;2022-10-15T00:31:36;95668.13;;;13.80;100.00
69411;BME280;56604;48.652;9.194;2022-10-15T00:34:01;95673.41;;;13.80;100.00
69411;BME280;56604;48.652;9.194;2022-10-15T00:36:29;95667.81;;;13.86;100.00
69411;BME280;56604;48.652;9.194;2022-10-15T00:38:56;95666.78;;;13.82;100.00
69411;BME280;56604;48.652;9.194;2022-10-15T00:41:30;95671.50;;;13.85;100.00
69411;BME280;56604;48.652;9.194;2022-10-15T00:44:01;95670.13;;;13.88;100.00
69411;BME280;56604;48.652;9.194;2022-10-15T00:51:35;95657.72;;;13.88;100.00
69411;BME280;56604;48.652;9.194;2022-10-15T00:54:02;95660.94;;;13.85;100.00
69411;BME280;56604;48.652;9.194;2022-10-15T00:56:29;95660.16;;;13.85;100.00
69411;BME280;56604;48.652;9.194;2022-10-15T00:58:56;95665.94;;;13.87;100.00
69411;BME280;56604;48.652;9.194;2022-10-15T01:01:22;95664.13;;;13.82;100.00
69411;BME280;56604;48.652;9.194;2022-10-15T01:03:50;95657.44;;;13.90;100.00
69411;BME280;56604;48.652;9.194;2022-10-15T01:06:15;95652.94;;;13.90;100.00
69411;BME280;56604;48.652;9.194;2022-10-15T01:08:41;95658.28;;;13.85;100.00
69411;BME280;56604;48.652;9.194;2022-10-15T01:11:19;95642.50;;;13.80;100.00
69411;BME280;56604;48.652;9.194;2022-10-15T01:14:10;95647.13;;;13.88;100.00
69411;BME280;56604;48.652;9.194;2022-10-15T01:16:46;95644.59;;;13.83;100.00
69411;BME280;56604;48.652;9.194;2022-10-15T01:19:55;95638.78;;;13.81;100.00
69411;BME280;56604;48.652;9.194;2022-10-15T01:31:14;95630.81;;;13.86;100.00
69411;BME280;56604;48.652;9.194;2022-10-15T01:33:49;95628.66;;;13.88;100.00
69411;BME280;56604;48.652;9.194;2022-10-15T01:36:40;95630.25;;;13.89;100.00
69411;BME280;56604;48.652;9.194;2022-10-15T01:39:20;95628.88;;;13.92;100.00
69411;BME280;56604;48.652;9.194;2022-10-15T01:41:53;95624.66;;;13.91;100.00
69411;BME280;56604;48.652;9.194;2022-10-15T01:44:30;95624.38;;;13.92;100.00
69411;BME280;56604;48.652;9.194;2022-10-15T01:47:06;95621.69;;;13.98;100.00
69411;BME280;56604;48.652;9.194;2022-10-15T01:49:38;95623.38;;;13.88;100.00
69411;BME280;56604;48.652;9.194;2022-10-15T01:52:09;95617.75;;;13.95;100.00
69411;BME280;56604;48.652;9.194;2022-10-15T01:54:38;95615.38;;;13.93;100.00
69411;BME280;56604;48.652;9.194;2022-10-15T01:57:04;95619.09;;;13.92;100.00
69411;BME280;56604;48.652;9.194;2022-10-15T01:59:31;95614.66;;;13.88;100.00
69411;BME280;56604;48.652;9.194;2022-10-15T02:01:58;95615.94;;;13.90;100.00
69411;BME280;56604;48.652;9.194;2022-10-15T02:04:28;95614.97;;;13.86;100.00
69411;BME280;56604;48.652;9.194;2022-10-15T02:07:03;95622.78;;;13.91;100.00
69411;BME280;56604;48.652;9.194;2022-10-15T02:09:44;95616.97;;;13.94;100.00
69411;BME280;56604;48.652;9.194;2022-10-15T02:17:30;95610.28;;;13.97;100.00
69411;BME280;56604;48.652;9.194;2022-10-15T02:20:05;95615.81;;;14.01;100.00
69411;BME280;56604;48.652;9.194;2022-10-15T02:22:55;95602.03;;;14.04;100.00
69411;BME280;56604;48.652;9.194;2022-10-15T02:25:23;95613.06;;;14.06;100.00
69411;BME280;56604;48.652;9.194;2022-10-15T02:27:51;95610.44;;;14.06;100.00
69411;BME280;56604;48.652;9.194;2022-10-15T02:30:19;95608.81;;;14.10;100.00
69411;BME280;56604;48.652;9.194;2022-10-15T02:32:47;95603.78;;;14.08;100.00
69411;BME280;56604;48.652;9.194;2022-10-15T02:35:14;95609.88;;;14.09;100.00
69411;BME280;56604;48.652;9.194;2022-10-15T02:37:43;95616.22;;;14.08;100.00
69411;BME280;56604;48.652;9.194;2022-10-15T02:40:11;95615.66;;;14.11;100.00
69411;BME280;56604;48.652;9.194;2022-10-15T02:42:36;95620.38;;;14.14;100.00
69411;BME280;56604;48.652;9.194;2022-10-15T02:45:02;95617.16;;;14.17;100.00
69411;BME280;56604;48.652;9.194;2022-10-15T02:47:28;95617.66;;;14.19;100.00
69411;BME280;56604;48.652;9.194;2022-10-15T02:49:53;95621.31;;;14.23;100.00
69411;BME280;56604;48.652;9.194;2022-10-15T02:52:18;95624.03;;;14.18;100.00
69411;BME280;56604;48.652;9.194;2022-10-15T02:54:44;95629.25;;;14.23;100.00
69411;BME280;56604;48.652;9.194;2022-10-15T02:57:09;95623.59;;;14.30;100.00
69411;BME280;56604;48.652;9.194;2022-10-15T02:59:34;95623.97;;;14.23;100.00
69411;BME280;56604;48.652;9.194;2022-10-15T03:01:59;95630.81;;;14.24;100.00
69411;BME280;56604;48.652;9.194;2022-10-15T03:04:25;95632.38;;;14.25;100.00
69411;BME280;56604;48.652;9.194;2022-10-15T03:06:50;95627.84;;;14.26;100.00
69411;BME280;56604;48.652;9.194;2022-10-15T03:09:15;95635.44;;;14.32;100.00
69411;BME280;56604;48.652;9.194;2022-10-15T03:11:41;95635.44;;;14.32;100.00
69411;BME280;56604;48.652;9.194;2022-10-15T03:14:06;95634.38;;;14.33;100.00
69411;BME280;56604;48.652;9.194;2022-10-15T03:16:31;95644.38;;;14.36;100.00
69411;BME280;56604;48.652;9.194;2022-10-15T03:18:57;95637.72;;;14.39;100.00
69411;BME280;56604;48.652;9.194;2022-10-15T03:21:22;95636.09;;;14.43;100.00
69411;BME280;56604;48.652;9.194;2022-10-15T03:23:47;95630.56;;;14.39;100.00
69411;BME280;56604;48.652;9.194;2022-10-15T03:26:13;95632.22;;;14.35;100.00
69411;BME280;56604;48.652;9.194;2022-10-15T03:28:38;95636.16;;;14.38;100.00
69411;BME280;56604;48.652;9.194;2022-10-15T03:31:03;95639.50;;;14.44;100.00
69411;BME280;56604;48.652;9.194;2022-10-15T03:33:29;95635.38;;;14.37;100.00
69411;BME280;56604;48.652;9.194;2022-10-15T03:35:54;95636.34;;;14.42;100.00
69411;BME280;56604;48.652;9.194;2022-10-15T03:38:20;95645.38;;;14.40;100.00
69411;BME280;56604;48.652;9.194;2022-10-15T03:40:45;95642.94;;;14.44;100.00
69411;BME280;56604;48.652;9.194;2022-10-15T03:43:10;95655.38;;;14.44;100.00
69411;BME280;56604;48.652;9.194;2022-10-15T03:45:36;95646.72;;;14.38;100.00
69411;BME280;56604;48.652;9.194;2022-10-15T03:48:01;95658.09;;;14.38;100.00
69411;BME280;56604;48.652;9.194;2022-10-15T03:50:26;95658.59;;;14.40;100.00
69411;BME280;56604;48.652;9.194;2022-10-15T03:52:53;95664.59;;;14.46;100.00
69411;BME280;56604;48.652;9.194;2022-10-15T03:55:18;95663.31;;;14.44;100.00
69411;BME280;56604;48.652;9.194;2022-10-15T03:57:43;95664.09;;;14.44;100.00
69411;BME280;56604;48.652;9.194;2022-10-15T04:00:11;95665.25;;;14.38;100.00
69411;BME280;56604;48.652;9.194;2022-10-15T04:02:36;95668.66;;;14.38;100.00
69411;BME280;56604;48.652;9.194;2022-10-15T04:05:02;95668.31;;;14.45;100.00
69411;BME280;56604;48.652;9.194;2022-10-15T04:07:27;95673.88;;;14.44;100.00
69411;BME280;56604;48.652;9.194;2022-10-15T04:09:52;95672.81;;;14.45;100.00
69411;BME280;56604;48.652;9.194;2022-10-15T04:12:18;95669.66;;;14.43;100.00
69411;BME280;56604;48.652;9.194;2022-10-15T04:14:43;95674.47;;;14.40;100.00
69411;BME280;56604;48.652;9.194;2022-10-15T04:17:09;95682.81;;;14.48;100.00
69411;BME280;56604;48.652;9.194;2022-10-15T04:19:34;95681.81;;;14.44;100.00
69411;BME280;56604;48.652;9.194;2022-10-15T04:21:59;95680.22;;;14.43;100.00
69411;BME280;56604;48.652;9.194;2022-10-15T04:24:25;95677.72;;;14.51;100.00
69411;BME280;56604;48.652;9.194;2022-10-15T04:26:50;95682.03;;;14.47;100.00
69411;BME280;56604;48.652;9.194;2022-10-15T04:29:16;95679.75;;;14.40;100.00
69411;BME280;56604;48.652;9.194;2022-10-15T04:31:41;95679.25;;;14.38;100.00
69411;BME280;56604;48.652;9.194;2022-10-15T04:34:07;95689.47;;;14.45;100.00
69411;BME280;56604;48.652;9.194;2022-10-15T04:36:33;95682.97;;;14.37;100.00
69411;BME280;56604;48.652;9.194;2022-10-15T04:38:58;95690.75;;;14.48;100.00
69411;BME280;56604;48.652;9.194;2022-10-15T04:41:24;95692.53;;;14.33;100.00
69411;BME280;56604;48.652;9.194;2022-10-15T04:43:49;95690.97;;;14.32;100.00
69411;BME280;56604;48.652;9.194;2022-10-15T04:46:14;95697.63;;;14.30;100.00
69411;BME280;56604;48.652;9.194;2022-10-15T04:48:40;95689.31;;;14.36;100.00
69411;BME280;56604;48.652;9.194;2022-10-15T04:51:06;95698.41;;;14.30;100.00
69411;BME280;56604;48.652;9.194;2022-10-15T04:53:32;95697.03;;;14.33;100.00
69411;BME280;56604;48.652;9.194;2022-10-15T04:56:03;95693.09;;;14.30;100.00
69411;BME280;56604;48.652;9.194;2022-10-15T04:58:30;95696.84;;;14.29;100.00
69411;BME280;56604;48.652;9.194;2022-10-15T05:00:58;95690.97;;;14.32;100.00
69411;BME280;56604;48.652;9.194;2022-10-15T05:03:24;95695.75;;;14.30;100.00
69411;BME280;56604;48.652;9.194;2022-10-15T05:05:49;95693.19;;;14.25;100.00
69411;BME280;56604;48.652;9.194;2022-10-15T05:08:14;95691.63;;;14.24;100.00
69411;BME280;56604;48.652;9.194;2022-10-15T05:10:40;95681.31;;;14.23;100.00
69411;BME280;56604;48.652;9.194;2022-10-15T05:13:05;95690.06;;;14.23;100.00
69411;BME280;56604;48.652;9.194;2022-10-15T05:15:30;95683.09;;;14.27;100.00
69411;BME280;56604;48.652;9.194;2022-10-15T05:17:55;95697.63;;;14.30;100.00
69411;BME280;56604;48.652;9.194;2022-10-15T05:20:21;95701.03;;;14.30;100.00
69411;BME280;56604;48.652;9.194;2022-10-15T05:22:46;95710.91;;;14.25;100.00
69411;BME280;56604;48.652;9.194;2022-10-15T05:25:11;95714.84;;;14.27;100.00
69411;BME280;56604;48.652;9.194;2022-10-15T05:27:37;95720.69;;;14.24;100.00
69411;BME280;56604;48.652;9.194;2022-10-15T05:30:02;95720.47;;;14.21;100.00
69411;BME280;56604;48.652;9.194;2022-10-15T05:32:28;95728.06;;;14.27;100.00
69411;BME280;56604;48.652;9.194;2022-10-15T05:34:53;95732.63;;;14.22;100.00
69411;BME280;56604;48.652;9.194;2022-10-15T05:37:19;95735.78;;;14.24;100.00
69411;BME280;56604;48.652;9.194;2022-10-15T05:39:44;95730.75;;;14.22;100.00
69411;BME280;56604;48.652;9.194;2022-10-15T05:42:09;95739.25;;;14.19;100.00
69411;BME280;56604;48.652;9.194;2022-10-15T05:44:35;95737.56;;;14.28;100.00
69411;BME280;56604;48.652;9.194;2022-10-15T05:47:00;95746.06;;;14.25;100.00
69411;BME280;56604;48.652;9.194;2022-10-15T05:49:25;95751.28;;;14.30;100.00
69411;BME280;56604;48.652;9.194;2022-10-15T05:51:51;95767.25;;;14.20;100.00
69411;BME280;56604;48.652;9.194;2022-10-15T05:54:16;95756.16;;;14.23;100.00
69411;BME280;56604;48.652;9.194;2022-10-15T05:56:41;95757.72;;;14.24;100.00
69411;BME280;56604;48.652;9.194;2022-10-15T05:59:07;95760.63;;;14.23;100.00
69411;BME280;56604;48.652;9.194;2022-10-15T06:01:32;95765.59;;;14.29;99.94
69411;BME280;56604;48.652;9.194;2022-10-15T06:03:57;95772.75;;;14.48;98.80
69411;BME280;56604;48.652;9.194;2022-10-15T06:06:24;95764.28;;;14.46;98.36
69411;BME280;56604;48.652;9.194;2022-10-15T06:08:53;95763.94;;;14.33;98.49
69411;BME280;56604;48.652;9.194;2022-10-15T06:11:19;95767.22;;;14.25;98.48
69411;BME280;56604;48.652;9.194;2022-10-15T06:13:45;95775.66;;;14.27;98.91
69411;BME280;56604;48.652;9.194;2022-10-15T06:16:11;95769.84;;;14.25;98.97
69411;BME280;56604;48.652;9.194;2022-10-15T06:18:37;95777.31;;;14.23;98.53
69411;BME280;56604;48.652;9.194;2022-10-15T06:21:04;95780.72;;;14.24;98.91
69411;BME280;56604;48.652;9.194;2022-10-15T06:23:30;95784.16;;;14.24;98.30
69411;BME280;56604;48.652;9.194;2022-10-15T06:25:56;95794.16;;;14.27;98.28
69411;BME280;56604;48.652;9.194;2022-10-15T06:28:21;95794.72;;;14.24;98.02
69411;BME280;56604;48.652;9.194;2022-10-15T06:30:46;95791.25;;;14.29;98.13
69411;BME280;56604;48.652;9.194;2022-10-15T06:33:12;95801.81;;;14.29;98.19
69411;BME280;56604;48.652;9.194;2022-10-15T06:35:40;95802.03;;;14.32;97.95
69411;BME280;56604;48.652;9.194;2022-10-15T06:38:06;95805.00;;;14.26;97.63
69411;BME280;56604;48.652;9.194;2022-10-15T06:40:31;95812.63;;;14.32;97.83
69411;BME280;56604;48.652;9.194;2022-10-15T06:43:07;95814.19;;;14.33;98.22
69411;BME280;56604;48.652;9.194;2022-10-15T06:45:38;95824.81;;;14.28;98.30
69411;BME280;56604;48.652;9.194;2022-10-15T06:48:04;95819.69;;;14.37;98.14
69411;BME280;56604;48.652;9.194;2022-10-15T06:50:31;95818.41;;;14.34;97.76
69411;BME280;56604;48.652;9.194;2022-10-15T06:52:57;95827.13;;;14.35;97.74
69411;BME280;56604;48.652;9.194;2022-10-15T06:55:22;95825.31;;;14.30;98.09
69411;BME280;56604;48.652;9.194;2022-10-15T06:57:48;95837.03;;;14.24;97.88
69411;BME280;56604;48.652;9.194;2022-10-15T07:00:14;95837.91;;;14.38;97.88
69411;BME280;56604;48.652;9.194;2022-10-15T07:02:40;95844.03;;;14.34;98.47
69411;BME280;56604;48.652;9.194;2022-10-15T07:05:06;95846.78;;;14.48;97.83
69411;BME280;56604;48.652;9.194;2022-10-15T07:07:31;95852.44;;;14.41;97.84
69411;BME280;56604;48.652;9.194;2022-10-15T07:09:56;95845.44;;;14.50;97.86
69411;BME280;56604;48.652;9.194;2022-10-15T07:12:22;95862.44;;;14.44;97.57
69411;BME280;56604;48.652;9.194;2022-10-15T07:14:47;95857.44;;;14.43;97.85
69411;BME280;56604;48.652;9.194;2022-10-15T07:17:13;95856.31;;;14.49;97.89
69411;BME280;56604;48.652;9.194;2022-10-15T07:19:39;95865.88;;;14.45;98.30
69411;BME280;56604;48.652;9.194;2022-10-15T07:22:04;95864.03;;;14.45;98.31
69411;BME280;56604;48.652;9.194;2022-10-15T07:24:29;95868.19;;;14.51;97.94
69411;BME280;56604;48.652;9.194;2022-10-15T07:26:55;95874.72;;;14.59;98.01
69411;BME280;56604;48.652;9.194;2022-10-15T07:29:21;95867.53;;;14.65;97.21
69411;BME280;56604;48.652;9.194;2022-10-15T07:31:46;95867.16;;;14.71;97.25
69411;BME280;56604;48.652;9.194;2022-10-15T07:34:11;95882.00;;;14.72;97.08
69411;BME280;56604;48.652;9.194;2022-10-15T07:36:36;95882.94;;;14.81;96.85
69411;BME280;56604;48.652;9.194;2022-10-15T07:39:02;95876.94;;;14.95;96.78
69411;BME280;56604;48.652;9.194;2022-10-15T07:41:29;95882.34;;;14.84;96.43
69411;BME280;56604;48.652;9.194;2022-10-15T07:43:54;95894.13;;;14.97;96.32
69411;BME280;56604;48.652;9.194;2022-10-15T07:46:20;95892.88;;;14.90;96.22
69411;BME280;56604;48.652;9.194;2022-10-15T07:48:45;95897.59;;;14.93;96.25
69411;BME280;56604;48.652;9.194;2022-10-15T07:51:11;95887.06;;;14.88;96.01
69411;BME280;56604;48.652;9.194;2022-10-15T07:53:36;95892.75;;;15.00;96.36
69411;BME280;56604;48.652;9.194;2022-10-15T07:56:07;95889.81;;;15.20;95.94
69411;BME280;56604;48.652;9.194;2022-10-15T07:58:35;95897.34;;;15.32;95.46
69411;BME280;56604;48.652;9.194;2022-10-15T08:01:03;95893.59;;;15.33;95.29
69411;BME280;56604;48.652;9.194;2022-10-15T08:03:29;95897.53;;;15.36;95.64
69411;BME280;56604;48.652;9.194;2022-10-15T08:05:55;95903.47;;;15.46;94.99
69411;BME280;56604;48.652;9.194;2022-10-15T08:08:21;95897.81;;;15.53;94.84
69411;BME280;56604;48.652;9.194;2022-10-15T08:10:47;95900.25;;;15.68;94.20
69411;BME280;56604;48.652;9.194;2022-10-15T08:13:12;95905.31;;;15.65;93.74
69411;BME280;56604;48.652;9.194;2022-10-15T08:15:41;95901.38;;;15.62;93.75
69411;BME280;56604;48.652;9.194;2022-10-15T08:18:07;95903.63;;;15.88;93.86
69411;BME280;56604;48.652;9.194;2022-10-15T08:20:37;95909.53;;;15.85;93.61
69411;BME280;56604;48.652;9.194;2022-10-15T08:23:04;95901.25;;;15.72;94.12
69411;BME280;56604;48.652;9.194;2022-10-15T08:25:31;95902.81;;;15.73;94.36
69411;BME280;56604;48.652;9.194;2022-10-15T08:27:57;95895.47;;;15.51;94.92
69411;BME280;56604;48.652;9.194;2022-10-15T08:30:22;95900.19;;;15.55;95.91
69411;BME280;56604;48.652;9.194;2022-10-15T08:32:47;95897.50;;;15.73;95.89
69411;BME280;56604;48.652;9.194;2022-10-15T08:35:13;95893.53;;;15.90;95.18
69411;BME280;56604;48.652;9.194;2022-10-15T08:37:38;95900.75;;;16.03;94.61
69411;BME280;56604;48.652;9.194;2022-10-15T08:40:04;95899.41;;;15.87;95.02
69411;BME280;56604;48.652;9.194;2022-10-15T08:42:40;95902.34;;;16.18;94.31
69411;BME280;56604;48.652;9.194;2022-10-15T08:45:17;95906.59;;;16.60;92.57
69411;BME280;56604;48.652;9.194;2022-10-15T08:47:50;95910.22;;;16.64;90.88
69411;BME280;56604;48.652;9.194;2022-10-15T08:50:41;95906.50;;;16.66;92.39
69411;BME280;56604;48.652;9.194;2022-10-15T08:53:15;95901.34;;;17.11;89.95
69411;BME280;56604;48.652;9.194;2022-10-15T08:55:45;95917.22;;;17.02;89.09
69411;BME280;56604;48.652;9.194;2022-10-15T08:58:16;95910.56;;;17.13;89.11
69411;BME280;56604;48.652;9.194;2022-10-15T09:01:00;95915.53;;;16.92;89.52
69411;BME280;56604;48.652;9.194;2022-10-15T09:09:04;95904.28;;;17.23;87.78
69411;BME280;56604;48.652;9.194;2022-10-15T09:14:36;95907.91;;;16.77;88.39
69411;BME280;56604;48.652;9.194;2022-10-15T09:17:19;95915.16;;;16.85;88.22
69411;BME280;56604;48.652;9.194;2022-10-15T09:19:45;95905.50;;;17.03;88.39
69411;BME280;56604;48.652;9.194;2022-10-15T09:22:16;95907.09;;;17.26;87.09
69411;BME280;56604;48.652;9.194;2022-10-15T09:24:42;95909.22;;;17.38;85.66
69411;BME280;56604;48.652;9.194;2022-10-15T09:29:52;95918.44;;;17.54;86.47
69411;BME280;56604;48.652;9.194;2022-10-15T09:32:24;95924.59;;;17.64;85.17
69411;BME280;56604;48.652;9.194;2022-10-15T09:37:52;95930.41;;;17.66;84.82
69411;BME280;56604;48.652;9.194;2022-10-15T09:42:54;95927.13;;;17.69;83.58
69411;BME280;56604;48.652;9.194;2022-10-15T09:45:21;95942.13;;;17.65;83.60
69411;BME280;56604;48.652;9.194;2022-10-15T09:47:48;95932.97;;;17.93;83.00
69411;BME280;56604;48.652;9.194;2022-10-15T09:50:14;95938.44;;;17.74;82.57
69411;BME280;56604;48.652;9.194;2022-10-15T09:55:34;95930.44;;;18.11;81.13
69411;BME280;56604;48.652;9.194;2022-10-15T09:58:04;95930.38;;;18.02;81.21
69411;BME280;56604;48.652;9.194;2022-10-15T10:01:04;95930.47;;;17.74;81.72
69411;BME280;56604;48.652;9.194;2022-10-15T10:03:32;95932.78;;;17.90;81.73
69411;BME280;56604;48.652;9.194;2022-10-15T10:06:01;95932.41;;;18.28;80.50
69411;BME280;56604;48.652;9.194;2022-10-15T10:08:28;95934.03;;;18.77;80.19
69411;BME280;56604;48.652;9.194;2022-10-15T10:10:58;95942.13;;;18.72;77.38
69411;BME280;56604;48.652;9.194;2022-10-15T10:13:30;95948.84;;;18.70;76.40
69411;BME280;56604;48.652;9.194;2022-10-15T10:16:03;95954.28;;;18.56;76.34
69411;BME280;56604;48.652;9.194;2022-10-15T10:18:30;95946.00;;;18.26;77.82
69411;BME280;56604;48.652;9.194;2022-10-15T10:21:01;95957.09;;;18.82;77.71
69411;BME280;56604;48.652;9.194;2022-10-15T10:23:31;95960.38;;;18.87;76.50
69411;BME280;56604;48.652;9.194;2022-10-15T10:26:00;95950.78;;;19.61;73.77
69411;BME280;56604;48.652;9.194;2022-10-15T10:28:30;95950.66;;;19.92;72.69
69411;BME280;56604;48.652;9.194;2022-10-15T10:33:43;95950.81;;;19.79;72.03
69411;BME280;56604;48.652;9.194;2022-10-15T10:36:25;95950.63;;;20.10;69.58
69411;BME280;56604;48.652;9.194;2022-10-15T10:39:01;95953.28;;;20.18;69.03
69411;BME280;56604;48.652;9.194;2022-10-15T10:44:35;95964.28;;;21.02;66.76
69411;BME280;56604;48.652;9.194;2022-10-15T10:49:35;95969.53;;;21.20;64.22
69411;BME280;56604;48.652;9.194;2022-10-15T10:52:02;95969.53;;;21.20;65.00
69411;BME280;56604;48.652;9.194;2022-10-15T10:54:28;95967.41;;;20.75;65.32
69411;BME280;56604;48.652;9.194;2022-10-15T10:56:55;95974.03;;;20.69;65.56
69411;BME280;56604;48.652;9.194;2022-10-15T10:59:26;95976.84;;;19.90;66.94
69411;BME280;56604;48.652;9.194;2022-10-15T11:01:53;95975.59;;;19.79;67.66
69411;BME280;56604;48.652;9.194;2022-10-15T11:14:58;95970.38;;;19.30;67.18
69411;BME280;56604;48.652;9.194;2022-10-15T11:18:01;95969.75;;;19.51;68.09
69411;BME280;56604;48.652;9.194;2022-10-15T11:20:48;95958.47;;;19.89;68.04
69411;BME280;56604;48.652;9.194;2022-10-15T11:23:31;95944.47;;;20.27;66.90
69411;BME280;56604;48.652;9.194;2022-10-15T11:26:24;95944.19;;;20.02;65.26
69411;BME280;56604;48.652;9.194;2022-10-15T11:29:11;95950.94;;;19.91;67.29
69411;BME280;56604;48.652;9.194;2022-10-15T11:35:00;95960.47;;;19.22;66.79
69411;BME280;56604;48.652;9.194;2022-10-15T11:42:54;95945.50;;;18.95;67.17
69411;BME280;56604;48.652;9.194;2022-10-15T11:54:13;95945.94;;;18.80;68.95
69411;BME280;56604;48.652;9.194;2022-10-15T11:56:46;95945.56;;;19.13;69.15
69411;BME280;56604;48.652;9.194;2022-10-15T12:01:53;95937.97;;;18.88;67.64
69411;BME280;56604;48.652;9.194;2022-10-15T12:06:54;95921.06;;;18.84;67.31
69411;BME280;56604;48.652;9.194;2022-10-15T12:09:27;95919.06;;;18.99;67.63
69411;BME280;56604;48.652;9.194;2022-10-15T12:14:37;95924.81;;;18.92;67.95
69411;BME280;56604;48.652;9.194;2022-10-15T12:17:37;95922.78;;;18.98;67.11
69411;BME280;56604;48.652;9.194;2022-10-15T12:20:16;95916.72;;;18.66;67.17
69411;BME280;56604;48.652;9.194;2022-10-15T12:30:31;95914.50;;;18.51;67.56
69411;BME280;56604;48.652;9.194;2022-10-15T12:33:03;95913.88;;;18.54;68.32
69411;BME280;56604;48.652;9.194;2022-10-15T12:35:33;95920.31;;;18.53;69.45
69411;BME280;56604;48.652;9.194;2022-10-15T12:38:22;95925.06;;;18.33;70.64
69411;BME280;56604;48.652;9.194;2022-10-15T12:41:18;95918.47;;;18.31;71.35
69411;BME280;56604;48.652;9.194;2022-10-15T12:43:49;95925.31;;;18.23;73.54
69411;BME280;56604;48.652;9.194;2022-10-15T12:46:17;95918.91;;;18.64;73.32
69411;BME280;56604;48.652;9.194;2022-10-15T12:48:44;95920.13;;;18.58;72.44
69411;BME280;56604;48.652;9.194;2022-10-15T12:53:49;95908.81;;;18.12;71.23
69411;BME280;56604;48.652;9.194;2022-10-15T12:58:44;95898.25;;;17.98;70.95
69411;BME280;56604;48.652;9.194;2022-10-15T13:11:47;95900.75;;;18.26;69.83
69411;BME280;56604;48.652;9.194;2022-10-15T13:14:33;95904.38;;;18.30;68.89
69411;BME280;56604;48.652;9.194;2022-10-15T13:17:05;95907.09;;;18.39;69.34
69411;BME280;56604;48.652;9.194;2022-10-15T13:19:38;95906.00;;;18.49;69.58
69411;BME280;56604;48.652;9.194;2022-10-15T13:22:18;95907.38;;;18.37;69.13
69411;BME280;56604;48.652;9.194;2022-10-15T13:24:44;95907.66;;;18.67;69.06
69411;BME280;56604;48.652;9.194;2022-10-15T13:27:14;95914.13;;;18.43;69.07
69411;BME280;56604;48.652;9.194;2022-10-15T13:29:52;95913.72;;;18.19;69.78
69411;BME280;56604;48.652;9.194;2022-10-15T13:32:18;95911.34;;;18.17;70.03
69411;BME280;56604;48.652;9.194;2022-10-15T13:34:44;95910.13;;;17.92;69.71
69411;BME280;56604;48.652;9.194;2022-10-15T13:37:22;95911.94;;;17.83;70.87
69411;BME280;56604;48.652;9.194;2022-10-15T13:39:50;95905.66;;;17.79;70.93
69411;BME280;56604;48.652;9.194;2022-10-15T13:42:17;95914.72;;;17.78;71.80
69411;BME280;56604;48.652;9.194;2022-10-15T13:44:54;95907.44;;;17.70;71.18
69411;BME280;56604;48.652;9.194;2022-10-15T13:47:33;95919.41;;;17.59;71.90
69411;BME280;56604;48.652;9.194;2022-10-15T13:52:53;95909.13;;;17.66;71.75
69411;BME280;56604;48.652;9.194;2022-10-15T13:55:26;95895.63;;;17.76;70.98
69411;BME280;56604;48.652;9.194;2022-10-15T13:57:59;95900.25;;;17.93;71.19
69411;BME280;56604;48.652;9.194;2022-10-15T14:00:31;95906.13;;;17.81;70.63
69411;BME280;56604;48.652;9.194;2022-10-15T14:03:16;95905.53;;;17.84;71.03
69411;BME280;56604;48.652;9.194;2022-10-15T14:05:44;95915.63;;;17.96;70.62
69411;BME280;56604;48.652;9.194;2022-10-15T14:08:33;95921.16;;;17.63;71.20
69411;BME280;56604;48.652;9.194;2022-10-15T14:10:59;95919.81;;;17.52;71.54
69411;BME280;56604;48.652;9.194;2022-10-15T14:13:25;95915.66;;;17.60;72.12
69411;BME280;56604;48.652;9.194;2022-10-15T14:18:41;95909.03;;;17.71;71.92
69411;BME280;56604;48.652;9.194;2022-10-15T14:21:16;95914.34;;;17.71;71.98
69411;BME280;56604;48.652;9.194;2022-10-15T14:23:43;95903.81;;;17.66;71.28
69411;BME280;56604;48.652;9.194;2022-10-15T14:26:10;95910.75;;;17.75;71.96
69411;BME280;56604;48.652;9.194;2022-10-15T14:28:37;95909.00;;;17.85;71.76
69411;BME280;56604;48.652;9.194;2022-10-15T14:31:04;95921.97;;;17.86;71.42
69411;BME280;56604;48.652;9.194;2022-10-15T14:36:23;95922.41;;;17.80;71.68
69411;BME280;56604;48.652;9.194;2022-10-15T14:38:50;95919.44;;;17.81;71.54
69411;BME280;56604;48.652;9.194;2022-10-15T14:41:28;95920.25;;;17.68;72.34
69411;BME280;56604;48.652;9.194;2022-10-15T14:44:14;95922.78;;;17.73;72.21
69411;BME280;56604;48.652;9.194;2022-10-15T14:46:44;95924.38;;;17.74;72.21
69411;BME280;56604;48.652;9.194;2022-10-15T14:49:19;95917.59;;;17.68;72.12
69411;BME280;56604;48.652;9.194;2022-10-15T14:51:52;95913.84;;;17.69;72.79
69411;BME280;56604;48.652;9.194;2022-10-15T14:54:22;95915.34;;;17.61;72.90
69411;BME280;56604;48.652;9.194;2022-10-15T14:56:50;95918.56;;;17.72;72.57
69411;BME280;56604;48.652;9.194;2022-10-15T14:59:18;95909.31;;;17.69;72.87